CAT7 weather

Lasqueti Island/False Bay Seaplane Base
British Columbia, Canada

Public forecast

Using degrees Celsius for public forecast. Weather courtesy of forecast.io.

Closest aviation weather report (METAR) to Lasqueti Island/False Bay Seaplane Base

Closest report is Powell River Airport, 20.9 nm (38.7 km) NNW. Retrieved 2020/04/08 23:00 UTC (41 minutes ago):

CYPW 082300Z 28006KT 25SM FEW150 FEW250 12/02 A3029 RMK AC1CI2 AC TR CONTRAILS SLP264

Closest aviation forecast (TAF) to Lasqueti Island/False Bay Seaplane Base

Closest forecast is Comox Airport, 24.4 nm (45.2 km) WNW. Retrieved 2020/04/08 18:40 UTC (5 hours ago):

TAF CYQQ 081739Z 0818/0918 34005KT P6SM SCT250 BECMG 0818/0820 04005KT BECMG 0900/0902 30005KT RMK NXT FCST BY 090000Z